Time;durP1;ratioP1;P1;durP2;ratioP2;P2;SDS_P1;SDS_P2;PMS_P1;PMS_P2;Temp;Humidity;BMP_temperature;BMP_pressure;BME280_temperature;BME280_humidity;BME280_pressure;Samples;Min_cycle;Max_cycle;Signal;HPM_P1;HPM_P2
2023/12/18 00:01:36;;;;;;;1.10;1.10;;;;;;;;;;5050778;28;20120;-78
2023/12/18 00:04:03;;;;;;;0.60;0.60;;;;;;;;;;5050424;28;20040;-78
2023/12/18 00:06:31;;;;;;;1.77;0.57;;;;;;;;;;5049840;28;20397;-80
2023/12/18 00:08:56;;;;;;;0.45;0.45;;;;;;;;;;5047356;28;20036;-80
2023/12/18 00:11:22;;;;;;;0.65;0.65;;;;;;;;;;5049773;28;20029;-79
2023/12/18 00:13:47;;;;;;;1.23;1.15;;;;;;;;;;5049928;28;20489;-81
2023/12/18 00:16:13;;;;;;;0.95;0.93;;;;;;;;;;5048398;28;20029;-80
2023/12/18 00:18:38;;;;;;;2.10;1.88;;;;;;;;;;5082496;28;20028;-78
2023/12/18 00:21:04;;;;;;;1.58;0.82;;;;;;;;;;5048596;28;20025;-79
2023/12/18 00:23:29;;;;;;;1.55;0.68;;;;;;;;;;5049690;28;20032;-79
2023/12/18 00:25:55;;;;;;;0.60;0.60;;;;;;;;;;5047834;28;20457;-79
2023/12/18 00:28:20;;;;;;;4.28;2.35;;;;;;;;;;5050080;28;20485;-80
2023/12/18 00:30:46;;;;;;;2.08;1.55;;;;;;;;;;5050321;28;20463;-78
2023/12/18 00:33:11;;;;;;;0.80;0.73;;;;;;;;;;5050889;28;20080;-79
2023/12/18 00:35:37;;;;;;;1.48;1.20;;;;;;;;;;5052280;28;20028;-79
2023/12/18 00:38:02;;;;;;;0.85;0.70;;;;;;;;;;5050432;28;20342;-79
2023/12/18 00:40:30;;;;;;;7.47;1.10;;;;;;;;;;5050862;28;20515;-78
2023/12/18 00:42:57;;;;;;;1.23;1.08;;;;;;;;;;5049192;28;20036;-78
2023/12/18 00:45:23;;;;;;;0.82;0.82;;;;;;;;;;5049311;28;20083;-81
2023/12/18 00:47:48;;;;;;;1.17;1.10;;;;;;;;;;5049712;28;20029;-80
2023/12/18 00:50:14;;;;;;;1.00;0.88;;;;;;;;;;5049489;28;20029;-78
2023/12/18 00:52:39;;;;;;;0.50;0.50;;;;;;;;;;5050529;28;20025;-79
2023/12/18 00:55:06;;;;;;;0.55;0.55;;;;;;;;;;5048893;28;20039;-78
2023/12/18 00:57:32;;;;;;;0.30;0.30;;;;;;;;;;5050125;28;20494;-79
2023/12/18 00:59:58;;;;;;;1.83;0.88;;;;;;;;;;5048614;28;20132;-79
2023/12/18 01:02:23;;;;;;;0.70;0.70;;;;;;;;;;5052359;28;20074;-78
2023/12/18 01:04:49;;;;;;;0.95;0.95;;;;;;;;;;5049506;28;20040;-79
2023/12/18 01:07:14;;;;;;;1.85;0.52;;;;;;;;;;5048727;28;20116;-79
2023/12/18 01:09:40;;;;;;;0.45;0.45;;;;;;;;;;5048835;28;20427;-80
2023/12/18 01:12:06;;;;;;;1.75;1.40;;;;;;;;;;5048080;28;20032;-78
2023/12/18 01:14:31;;;;;;;1.52;0.57;;;;;;;;;;5049954;28;20089;-78
2023/12/18 01:16:57;;;;;;;2.05;1.13;;;;;;;;;;5050360;28;20476;-79
2023/12/18 01:19:22;;;;;;;1.90;0.68;;;;;;;;;;5048813;28;20051;-79
2023/12/18 01:21:48;;;;;;;1.98;0.95;;;;;;;;;;5048429;28;20021;-79
2023/12/18 01:24:13;;;;;;;1.88;1.38;;;;;;;;;;5048002;28;20037;-78
2023/12/18 01:26:39;;;;;;;1.13;1.13;;;;;;;;;;5049473;28;20017;-79
2023/12/18 01:29:05;;;;;;;1.15;1.05;;;;;;;;;;5046100;28;20039;-79
2023/12/18 01:31:30;;;;;;;1.10;1.10;;;;;;;;;;5047419;28;20491;-79
2023/12/18 01:33:58;;;;;;;1.85;1.75;;;;;;;;;;5046218;28;20037;-78
2023/12/18 01:36:23;;;;;;;1.08;1.08;;;;;;;;;;5047642;28;20033;-78
2023/12/18 01:38:49;;;;;;;1.63;0.98;;;;;;;;;;5046626;28;20082;-78
2023/12/18 01:41:14;;;;;;;1.25;1.15;;;;;;;;;;5046053;28;20021;-80
2023/12/18 01:43:40;;;;;;;1.65;0.60;;;;;;;;;;5047759;28;20035;-79
2023/12/18 01:46:05;;;;;;;1.27;1.20;;;;;;;;;;5048009;28;20032;-79
2023/12/18 01:48:32;;;;;;;4.63;2.53;;;;;;;;;;5046870;28;20029;-80
2023/12/18 01:50:59;;;;;;;0.95;0.65;;;;;;;;;;5048307;28;20481;-79
2023/12/18 01:53:29;;;;;;;2.65;1.50;;;;;;;;;;5044642;28;20037;-78
2023/12/18 01:55:56;;;;;;;1.52;1.42;;;;;;;;;;5049790;28;20171;-78
2023/12/18 01:58:41;;;;;;;0.95;0.90;;;;;;;;;;5050710;28;20060;-78
2023/12/18 02:01:10;;;;;;;0.38;0.38;;;;;;;;;;5048932;28;20492;-80
2023/12/18 02:03:46;;;;;;;1.48;1.40;;;;;;;;;;5048701;28;20041;-79
2023/12/18 02:06:14;;;;;;;1.95;1.50;;;;;;;;;;5046705;28;20033;-79
2023/12/18 02:08:49;;;;;;;1.25;1.20;;;;;;;;;;5048037;28;20067;-79
2023/12/18 02:11:21;;;;;;;1.63;0.85;;;;;;;;;;5044594;28;20523;-80
2023/12/18 02:13:46;;;;;;;0.32;0.32;;;;;;;;;;5048722;28;20021;-79
2023/12/18 02:16:18;;;;;;;0.32;0.32;;;;;;;;;;5047614;28;20028;-78
2023/12/18 02:18:47;;;;;;;5.22;1.75;;;;;;;;;;5048094;28;20071;-78
2023/12/18 02:21:30;;;;;;;0.45;0.45;;;;;;;;;;5047673;28;20033;-77
2023/12/18 02:23:58;;;;;;;0.90;0.90;;;;;;;;;;5078401;28;20051;-78
2023/12/18 02:26:28;;;;;;;3.15;0.80;;;;;;;;;;5046681;28;20044;-78
2023/12/18 02:29:00;;;;;;;0.80;0.80;;;;;;;;;;5078031;28;20037;-79
2023/12/18 02:31:32;;;;;;;0.28;0.25;;;;;;;;;;5044168;28;20074;-78
2023/12/18 02:34:01;;;;;;;0.70;0.70;;;;;;;;;;5047294;28;20388;-80
2023/12/18 02:36:31;;;;;;;1.75;0.93;;;;;;;;;;5048564;28;20036;-79
2023/12/18 02:39:09;;;;;;;;;;;;;;;;;;5047945;28;20483;-79
2023/12/18 02:41:35;;;;;;;0.57;0.57;;;;;;;;;;5047625;28;20011;-78
2023/12/18 02:44:10;;;;;;;1.35;1.25;;;;;;;;;;5044759;28;20124;-79
2023/12/18 02:46:45;;;;;;;0.95;0.93;;;;;;;;;;5045821;28;20037;-79
2023/12/18 02:49:31;;;;;;;1.75;0.90;;;;;;;;;;5045641;28;20489;-79
2023/12/18 02:52:00;;;;;;;0.50;0.50;;;;;;;;;;5046874;28;20033;-78
2023/12/18 02:54:26;;;;;;;1.83;1.58;;;;;;;;;;5048525;28;20029;-78
2023/12/18 02:56:54;;;;;;;2.47;1.33;;;;;;;;;;5051368;28;20453;-79
2023/12/18 02:59:29;;;;;;;3.72;2.80;;;;;;;;;;5049849;28;20028;-77
2023/12/18 03:02:08;;;;;;;0.77;0.77;;;;;;;;;;5049220;28;20029;-78
2023/12/18 03:04:39;;;;;;;2.97;2.17;;;;;;;;;;5047988;28;20116;-79
2023/12/18 03:07:08;;;;;;;2.47;2.28;;;;;;;;;;5049057;28;20044;-79
2023/12/18 03:09:36;;;;;;;1.52;1.23;;;;;;;;;;5048168;28;20037;-79
2023/12/18 03:12:05;;;;;;;0.75;0.50;;;;;;;;;;5050342;28;20492;-79
2023/12/18 03:14:36;;;;;;;0.80;0.80;;;;;;;;;;5047298;28;20021;-79
2023/12/18 03:17:12;;;;;;;3.20;1.15;;;;;;;;;;5051162;28;20021;-80
2023/12/18 03:19:50;;;;;;;0.28;0.28;;;;;;;;;;5051389;28;20487;-79
2023/12/18 03:22:19;;;;;;;3.42;1.85;;;;;;;;;;5052317;28;20075;-78
2023/12/18 03:24:58;;;;;;;;;;;;;;;;;;;;;
2023/12/18 03:27:27;;;;;;;0.40;0.40;;;;;;;;;;5051904;28;20545;-78
2023/12/18 03:29:55;;;;;;;0.33;0.33;;;;;;;;;;5052453;28;20039;-78
2023/12/18 03:32:34;;;;;;;0.47;0.47;;;;;;;;;;5049781;28;20029;-78
2023/12/18 03:35:10;;;;;;;0.50;0.50;;;;;;;;;;5050196;28;20032;-79
2023/12/18 03:37:45;;;;;;;0.85;0.85;;;;;;;;;;5083135;28;20393;-79
2023/12/18 03:40:14;;;;;;;0.68;0.68;;;;;;;;;;5051000;28;20132;-78
2023/12/18 03:42:41;;;;;;;0.95;0.95;;;;;;;;;;5052210;28;20060;-79
2023/12/18 03:45:12;;;;;;;0.73;0.47;;;;;;;;;;5050385;28;20039;-79
2023/12/18 03:47:38;;;;;;;0.93;0.85;;;;;;;;;;5050635;28;20104;-79
2023/12/18 03:50:19;;;;;;;1.10;1.08;;;;;;;;;;5051177;28;20530;-82
2023/12/18 03:52:44;;;;;;;0.60;0.60;;;;;;;;;;5051626;28;20025;-79
2023/12/18 03:55:13;;;;;;;0.60;0.60;;;;;;;;;;5050214;28;20038;-78
2023/12/18 03:57:39;;;;;;;0.60;0.60;;;;;;;;;;5049889;28;20072;-78
2023/12/18 04:00:24;;;;;;;1.20;1.05;;;;;;;;;;5050916;28;20024;-79
2023/12/18 04:02:52;;;;;;;1.45;1.35;;;;;;;;;;5049971;28;20029;-81
2023/12/18 04:05:24;;;;;;;1.17;1.13;;;;;;;;;;5050110;28;20552;-77
2023/12/18 04:07:53;;;;;;;0.80;0.80;;;;;;;;;;5050798;28;20029;-77
2023/12/18 04:10:19;;;;;;;0.57;0.57;;;;;;;;;;5049605;28;20029;-78
2023/12/18 04:12:48;;;;;;;0.73;0.55;;;;;;;;;;5066249;28;20124;-79
2023/12/18 04:15:17;;;;;;;2.50;1.27;;;;;;;;;;5051968;28;20021;-79
2023/12/18 04:17:43;;;;;;;1.08;0.43;;;;;;;;;;5049778;28;20020;-79
2023/12/18 04:20:12;;;;;;;0.73;0.73;;;;;;;;;;5064180;28;20124;-79
2023/12/18 04:22:38;;;;;;;2.55;1.27;;;;;;;;;;5049713;28;20357;-78
2023/12/18 04:25:14;;;;;;;0.85;0.85;;;;;;;;;;5051163;28;20029;-79
2023/12/18 04:27:41;;;;;;;0.65;0.65;;;;;;;;;;5045345;28;20032;-78
2023/12/18 04:30:12;;;;;;;1.20;0.95;;;;;;;;;;5049361;28;20396;-79
2023/12/18 04:32:41;;;;;;;1.55;0.85;;;;;;;;;;5047688;28;20036;-78
2023/12/18 04:35:23;;;;;;;3.20;1.92;;;;;;;;;;5047535;28;20377;-80
2023/12/18 04:37:52;;;;;;;3.67;1.50;;;;;;;;;;5046023;28;20024;-80
2023/12/18 04:40:24;;;;;;;1.00;0.85;;;;;;;;;;5046313;28;20053;-78
2023/12/18 04:42:56;;;;;;;0.55;0.55;;;;;;;;;;5048448;28;20075;-79
2023/12/18 04:45:24;;;;;;;1.67;1.58;;;;;;;;;;5045258;28;20121;-79
2023/12/18 04:47:50;;;;;;;2.05;1.27;;;;;;;;;;5048680;28;20107;-78
2023/12/18 04:50:19;;;;;;;0.93;0.85;;;;;;;;;;5080871;28;20465;-80
2023/12/18 04:52:44;;;;;;;1.03;0.63;;;;;;;;;;5045267;28;20039;-79
2023/12/18 04:55:13;;;;;;;0.57;0.57;;;;;;;;;;5046752;28;20710;-80
2023/12/18 04:57:39;;;;;;;0.43;0.43;;;;;;;;;;5043656;28;20053;-80
2023/12/18 05:00:06;;;;;;;1.38;1.27;;;;;;;;;;5048085;28;20032;-81
2023/12/18 05:02:32;;;;;;;1.40;1.30;;;;;;;;;;5045875;28;20111;-79
2023/12/18 05:04:57;;;;;;;0.75;0.75;;;;;;;;;;5045551;28;20124;-78
2023/12/18 05:07:23;;;;;;;1.00;0.60;;;;;;;;;;5047777;28;20025;-78
2023/12/18 05:09:48;;;;;;;1.83;1.52;;;;;;;;;;5050897;28;20040;-77
2023/12/18 05:12:16;;;;;;;0.70;0.70;;;;;;;;;;5047749;28;20535;-77
2023/12/18 05:14:42;;;;;;;2.60;0.77;;;;;;;;;;5048186;28;20021;-78
2023/12/18 05:17:07;;;;;;;0.57;0.57;;;;;;;;;;5045783;28;20079;-79
2023/12/18 05:19:33;;;;;;;0.55;0.55;;;;;;;;;;5046208;28;20380;-78
2023/12/18 05:21:58;;;;;;;1.05;1.05;;;;;;;;;;5047814;28;20029;-77
2023/12/18 05:24:24;;;;;;;0.73;0.63;;;;;;;;;;5047000;28;20032;-77
2023/12/18 05:26:49;;;;;;;0.75;0.43;;;;;;;;;;5046462;28;20024;-79
2023/12/18 05:29:15;;;;;;;0.43;0.43;;;;;;;;;;5051955;28;20451;-78
2023/12/18 05:31:40;;;;;;;0.52;0.52;;;;;;;;;;5046786;28;20021;-78
2023/12/18 05:34:05;;;;;;;0.52;0.52;;;;;;;;;;5045207;28;20075;-79
2023/12/18 05:36:31;;;;;;;1.13;1.08;;;;;;;;;;5052295;28;20028;-78
2023/12/18 05:38:56;;;;;;;0.47;0.47;;;;;;;;;;5047352;28;20025;-78
2023/12/18 05:41:22;;;;;;;1.27;1.17;;;;;;;;;;5048115;28;20121;-78
2023/12/18 05:43:47;;;;;;;1.23;0.85;;;;;;;;;;5049954;28;20028;-79
2023/12/18 05:46:13;;;;;;;0.28;0.28;;;;;;;;;;5044947;28;20106;-78
2023/12/18 05:48:39;;;;;;;0.30;0.30;;;;;;;;;;5047698;28;20053;-79
2023/12/18 05:51:04;;;;;;;0.77;0.77;;;;;;;;;;5046231;28;20082;-77
2023/12/18 05:53:30;;;;;;;0.82;0.82;;;;;;;;;;5045927;28;20036;-78
2023/12/18 05:55:56;;;;;;;1.10;0.98;;;;;;;;;;5046943;28;20454;-77
2023/12/18 05:58:21;;;;;;;1.48;1.38;;;;;;;;;;5049048;28;21327;-78
2023/12/18 06:00:47;;;;;;;0.50;0.50;;;;;;;;;;5051179;28;20021;-78
2023/12/18 06:03:12;;;;;;;0.43;0.43;;;;;;;;;;5057802;28;20056;-78
2023/12/18 06:05:38;;;;;;;0.75;0.75;;;;;;;;;;5049968;28;20373;-78
2023/12/18 06:08:09;;;;;;;1.42;1.05;;;;;;;;;;5047102;28;20074;-77
2023/12/18 06:10:34;;;;;;;0.77;0.77;;;;;;;;;;5046894;28;20035;-77
2023/12/18 06:13:00;;;;;;;1.42;1.33;;;;;;;;;;5044806;28;20033;-79
2023/12/18 06:15:25;;;;;;;0.43;0.43;;;;;;;;;;5049596;28;20024;-79
2023/12/18 06:17:51;;;;;;;0.63;0.63;;;;;;;;;;5047641;28;20034;-78
2023/12/18 06:20:17;;;;;;;1.30;1.20;;;;;;;;;;5046570;28;20040;-78
2023/12/18 06:22:43;;;;;;;0.50;0.50;;;;;;;;;;5047858;28;20025;-76
2023/12/18 06:25:08;;;;;;;0.52;0.52;;;;;;;;;;5046711;28;20050;-77
2023/12/18 06:27:34;;;;;;;0.88;0.85;;;;;;;;;;5051030;28;20035;-79
2023/12/18 06:29:59;;;;;;;0.80;0.80;;;;;;;;;;5049875;28;20511;-79
2023/12/18 06:32:24;;;;;;;1.38;1.27;;;;;;;;;;5050675;28;20082;-78
2023/12/18 06:34:50;;;;;;;1.45;1.02;;;;;;;;;;5057988;28;20464;-76
2023/12/18 06:37:15;;;;;;;2.42;2.22;;;;;;;;;;5049080;28;20025;-76
2023/12/18 06:39:42;;;;;;;0.47;0.47;;;;;;;;;;5050210;28;20039;-79
2023/12/18 06:42:07;;;;;;;0.75;0.75;;;;;;;;;;5050055;28;20392;-77
2023/12/18 06:44:34;;;;;;;4.63;1.45;;;;;;;;;;5076849;28;20029;-78
2023/12/18 06:46:59;;;;;;;5.05;2.45;;;;;;;;;;5049415;28;20032;-76
2023/12/18 06:49:25;;;;;;;0.88;0.82;;;;;;;;;;5053166;28;20021;-76
2023/12/18 06:51:50;;;;;;;1.38;1.30;;;;;;;;;;5052400;28;20048;-77
2023/12/18 06:54:16;;;;;;;2.45;2.25;;;;;;;;;;5052809;28;20029;-76
2023/12/18 06:56:42;;;;;;;0.45;0.45;;;;;;;;;;5051231;28;20480;-78
2023/12/18 06:59:07;;;;;;;1.13;1.08;;;;;;;;;;5052662;28;20049;-77
2023/12/18 07:01:33;;;;;;;0.70;0.70;;;;;;;;;;5043494;28;20099;-75
2023/12/18 07:03:58;;;;;;;0.60;0.60;;;;;;;;;;5044278;28;20035;-78
2023/12/18 07:06:24;;;;;;;2.13;1.38;;;;;;;;;;5043272;28;20032;-76
2023/12/18 07:08:49;;;;;;;4.30;1.77;;;;;;;;;;5076676;28;20032;-76
2023/12/18 07:11:14;;;;;;;2.15;1.85;;;;;;;;;;5042670;28;20036;-78
2023/12/18 07:13:40;;;;;;;2.65;1.73;;;;;;;;;;5042011;28;20048;-77
2023/12/18 07:16:06;;;;;;;2.22;2.05;;;;;;;;;;5043524;28;20029;-77
2023/12/18 07:18:31;;;;;;;3.22;2.08;;;;;;;;;;5047435;28;20573;-77
2023/12/18 07:20:57;;;;;;;4.25;2.65;;;;;;;;;;5049350;28;20108;-77
2023/12/18 07:23:22;;;;;;;4.20;3.28;;;;;;;;;;5048250;28;20033;-76
2023/12/18 07:25:47;;;;;;;5.82;2.55;;;;;;;;;;5046466;28;20078;-77
2023/12/18 07:28:13;;;;;;;4.65;4.25;;;;;;;;;;5040428;28;20039;-78
2023/12/18 07:30:38;;;;;;;4.28;3.88;;;;;;;;;;5044795;28;20397;-76
2023/12/18 07:33:04;;;;;;;4.20;2.95;;;;;;;;;;5047934;28;20059;-77
2023/12/18 07:35:30;;;;;;;5.20;4.03;;;;;;;;;;5051098;28;20450;-77
2023/12/18 07:37:55;;;;;;;4.30;3.45;;;;;;;;;;5053354;28;20675;-76
2023/12/18 07:40:21;;;;;;;5.07;2.15;;;;;;;;;;5050076;28;20016;-79
2023/12/18 07:42:47;;;;;;;3.33;2.55;;;;;;;;;;5050768;28;20529;-78
2023/12/18 07:45:12;;;;;;;3.63;3.13;;;;;;;;;;5050812;28;20385;-79
2023/12/18 07:47:39;;;;;;;3.15;2.88;;;;;;;;;;5043761;28;20029;-81
2023/12/18 07:50:08;;;;;;;4.53;2.45;;;;;;;;;;5049467;28;20634;-80
2023/12/18 07:52:33;;;;;;;1.55;1.45;;;;;;;;;;5048150;28;20512;-78
2023/12/18 07:54:59;;;;;;;2.17;2.03;;;;;;;;;;5049807;28;20111;-82
2023/12/18 07:57:24;;;;;;;4.40;2.15;;;;;;;;;;5052600;28;20041;-81
2023/12/18 07:59:50;;;;;;;1.15;1.13;;;;;;;;;;5052714;28;20644;-81
2023/12/18 08:02:15;;;;;;;2.08;1.92;;;;;;;;;;5048414;28;20044;-84
2023/12/18 08:04:41;;;;;;;4.13;1.98;;;;;;;;;;5050496;28;20028;-81
2023/12/18 08:07:06;;;;;;;3.42;2.67;;;;;;;;;;5046960;28;20021;-81
2023/12/18 08:09:32;;;;;;;4.57;3.75;;;;;;;;;;5051441;28;20055;-81
2023/12/18 08:11:58;;;;;;;2.60;2.42;;;;;;;;;;5049158;28;20108;-80
2023/12/18 08:14:24;;;;;;;8.80;5.80;;;;;;;;;;5050316;28;20043;-79
2023/12/18 08:16:50;;;;;;;8.65;3.70;;;;;;;;;;5050420;28;20028;-80
2023/12/18 08:19:15;;;;;;;3.78;3.45;;;;;;;;;;5049057;28;20024;-80
2023/12/18 08:21:41;;;;;;;5.63;4.20;;;;;;;;;;5050951;28;20032;-79
2023/12/18 08:24:06;;;;;;;10.70;4.38;;;;;;;;;;5046967;28;20055;-80
2023/12/18 08:26:31;;;;;;;9.07;4.22;;;;;;;;;;5050561;28;20028;-77
2023/12/18 08:28:57;;;;;;;4.20;3.83;;;;;;;;;;5049143;28;20027;-79
2023/12/18 08:31:22;;;;;;;3.38;3.03;;;;;;;;;;5050478;28;20029;-80
2023/12/18 08:33:48;;;;;;;3.65;3.35;;;;;;;;;;5047999;28;20096;-78
2023/12/18 08:36:13;;;;;;;11.13;3.75;;;;;;;;;;5049853;28;20020;-79
2023/12/18 08:38:39;;;;;;;5.38;4.90;;;;;;;;;;5049977;28;20028;-78
2023/12/18 08:41:05;;;;;;;6.88;5.20;;;;;;;;;;5047558;28;20029;-78
2023/12/18 08:43:31;;;;;;;3.90;3.22;;;;;;;;;;5050289;28;20029;-79
2023/12/18 08:45:56;;;;;;;12.07;5.10;;;;;;;;;;5050162;28;20028;-79
2023/12/18 08:48:22;;;;;;;6.57;4.63;;;;;;;;;;5047746;28;20029;-79
2023/12/18 08:50:47;;;;;;;7.82;6.68;;;;;;;;;;5048152;28;20419;-78
2023/12/18 08:53:13;;;;;;;10.32;5.47;;;;;;;;;;5050108;28;20043;-79
2023/12/18 08:55:42;;;;;;;9.13;4.53;;;;;;;;;;5050260;28;20442;-80
2023/12/18 08:58:08;;;;;;;7.07;4.03;;;;;;;;;;5050627;28;20070;-78
2023/12/18 09:00:34;;;;;;;4.93;3.13;;;;;;;;;;5047393;28;20039;-78
2023/12/18 09:02:59;;;;;;;9.05;5.57;;;;;;;;;;5047046;28;20032;-79
2023/12/18 09:05:25;;;;;;;4.95;4.07;;;;;;;;;;5050010;28;20028;-79
2023/12/18 09:07:50;;;;;;;7.00;5.03;;;;;;;;;;5046767;28;20040;-79
2023/12/18 09:10:17;;;;;;;7.15;4.88;;;;;;;;;;5047026;28;20024;-80
2023/12/18 09:12:44;;;;;;;6.03;5.15;;;;;;;;;;5047558;28;20078;-79
2023/12/18 09:15:09;;;;;;;7.32;5.78;;;;;;;;;;5047778;28;20061;-79
2023/12/18 09:17:35;;;;;;;5.70;5.15;;;;;;;;;;5049405;28;20060;-80
2023/12/18 09:20:00;;;;;;;8.70;6.35;;;;;;;;;;5049371;28;20104;-82
2023/12/18 09:22:26;;;;;;;8.95;5.30;;;;;;;;;;5049594;28;20029;-80
2023/12/18 09:24:51;;;;;;;5.78;4.35;;;;;;;;;;5044757;28;20512;-79
2023/12/18 09:27:16;;;;;;;11.00;5.40;;;;;;;;;;5047020;28;20112;-80
2023/12/18 09:29:42;;;;;;;12.27;7.07;;;;;;;;;;5042823;28;20025;-80
2023/12/18 09:32:07;;;;;;;10.43;7.15;;;;;;;;;;5046830;28;20018;-80
2023/12/18 09:34:33;;;;;;;11.38;7.70;;;;;;;;;;5047369;28;20032;-80
2023/12/18 09:36:58;;;;;;;9.23;6.25;;;;;;;;;;5046503;28;20107;-80
2023/12/18 09:39:24;;;;;;;10.73;6.53;;;;;;;;;;5049562;28;20056;-82
2023/12/18 09:41:49;;;;;;;9.40;7.70;;;;;;;;;;5048177;28;20033;-82
2023/12/18 09:44:15;;;;;;;19.13;10.45;;;;;;;;;;5049732;28;20024;-81
2023/12/18 09:46:40;;;;;;;7.22;6.32;;;;;;;;;;5048164;28;20023;-80
2023/12/18 09:49:05;;;;;;;12.50;5.43;;;;;;;;;;5050782;28;20037;-80
2023/12/18 09:51:35;;;;;;;8.68;5.72;;;;;;;;;;5048950;28;20040;-81
2023/12/18 09:54:01;;;;;;;;;;;;;;;;;;5049715;28;20520;-78
2023/12/18 09:56:28;;;;;;;6.55;4.32;;;;;;;;;;5046686;28;20047;-80
2023/12/18 09:58:58;;;;;;;9.68;6.18;;;;;;;;;;5048921;28;20044;-79
2023/12/18 10:01:24;;;;;;;;;;;;;;;;;;5049634;28;20036;-77
2023/12/18 10:03:49;;;;;;;8.65;6.03;;;;;;;;;;5051395;28;19913;-79
2023/12/18 10:06:14;;;;;;;7.10;5.63;;;;;;;;;;5052864;28;20064;-78
2023/12/18 10:08:40;;;;;;;16.00;8.35;;;;;;;;;;5056174;28;20021;-81
2023/12/18 10:11:05;;;;;;;8.10;6.47;;;;;;;;;;5056518;28;20036;-81
2023/12/18 10:13:31;;;;;;;13.70;7.18;;;;;;;;;;5055693;28;20167;-80
2023/12/18 10:15:58;;;;;;;8.85;7.07;;;;;;;;;;5052263;28;20025;-81
2023/12/18 10:18:24;;;;;;;11.30;7.13;;;;;;;;;;5054551;28;20044;-78
2023/12/18 10:20:51;;;;;;;10.60;7.18;;;;;;;;;;5055545;28;20078;-80
2023/12/18 10:23:17;;;;;;;13.57;7.50;;;;;;;;;;5055598;28;20094;-79
2023/12/18 10:25:42;;;;;;;10.90;7.18;;;;;;;;;;5053959;28;20029;-78
2023/12/18 10:28:08;;;;;;;9.50;7.25;;;;;;;;;;5055355;28;20021;-77
2023/12/18 10:30:36;;;;;;;10.02;8.68;;;;;;;;;;5053230;28;20805;-77
2023/12/18 10:33:09;;;;;;;10.02;7.40;;;;;;;;;;5053821;28;20464;-78
2023/12/18 10:35:35;;;;;;;10.05;6.88;;;;;;;;;;5052864;28;20108;-77
2023/12/18 10:38:01;;;;;;;18.52;11.05;;;;;;;;;;5052130;28;20115;-77
2023/12/18 10:40:29;;;;;;;15.13;11.48;;;;;;;;;;5054684;28;20074;-78
2023/12/18 10:43:16;;;;;;;13.98;10.95;;;;;;;;;;5052663;28;21270;-77
2023/12/18 10:45:42;;;;;;;12.32;8.55;;;;;;;;;;5056694;28;20028;-79
2023/12/18 10:48:08;;;;;;;16.70;9.57;;;;;;;;;;5053220;28;20520;-77
2023/12/18 10:50:36;;;;;;;18.90;10.95;;;;;;;;;;5054907;28;20036;-79
2023/12/18 10:53:03;;;;;;;16.83;9.63;;;;;;;;;;5051957;28;20166;-79
2023/12/18 10:55:31;;;;;;;12.30;9.07;;;;;;;;;;5053393;28;20526;-79
2023/12/18 10:57:58;;;;;;;22.45;12.05;;;;;;;;;;5054361;28;20053;-78
2023/12/18 11:00:24;;;;;;;18.63;10.43;;;;;;;;;;5052291;28;20468;-78
2023/12/18 11:02:52;;;;;;;9.15;7.43;;;;;;;;;;5053264;28;20043;-79
2023/12/18 11:05:18;;;;;;;15.32;10.23;;;;;;;;;;5033253;28;20559;-78
2023/12/18 11:07:44;;;;;;;13.50;8.82;;;;;;;;;;5054264;28;20035;-79
2023/12/18 11:10:10;;;;;;;20.95;9.98;;;;;;;;;;5053469;28;20049;-78
2023/12/18 11:12:38;;;;;;;13.40;9.55;;;;;;;;;;5051456;28;20033;-78
2023/12/18 11:15:29;;;;;;;16.15;10.25;;;;;;;;;;5050509;28;20047;-78
2023/12/18 11:18:18;;;;;;;19.17;13.48;;;;;;;;;;5050810;28;20090;-78
2023/12/18 11:20:44;;;;;;;18.52;12.50;;;;;;;;;;5051726;28;20052;-78
2023/12/18 11:23:11;;;;;;;13.07;10.00;;;;;;;;;;5048775;28;20033;-80
2023/12/18 11:25:48;;;;;;;11.73;8.23;;;;;;;;;;5049295;28;20499;-79
2023/12/18 11:28:15;;;;;;;18.00;9.75;;;;;;;;;;5050828;28;20029;-78
2023/12/18 11:30:43;;;;;;;22.77;10.45;;;;;;;;;;5051059;28;20044;-79
2023/12/18 11:33:10;;;;;;;23.98;9.10;;;;;;;;;;5049783;28;20025;-78
2023/12/18 11:35:37;;;;;;;14.70;8.25;;;;;;;;;;5050803;28;20769;-78
2023/12/18 11:38:11;;;;;;;10.75;7.38;;;;;;;;;;5049159;28;20025;-78
2023/12/18 11:40:49;;;;;;;15.55;8.98;;;;;;;;;;5049639;28;20495;-79
2023/12/18 11:43:38;;;;;;;11.57;6.13;;;;;;;;;;5050750;28;20051;-79
2023/12/18 11:46:08;;;;;;;11.15;8.23;;;;;;;;;;5050236;28;20040;-79
2023/12/18 11:48:34;;;;;;;8.07;6.25;;;;;;;;;;5049585;28;20048;-78
2023/12/18 11:51:02;;;;;;;5.18;4.65;;;;;;;;;;5050580;28;20041;-79
2023/12/18 11:53:32;;;;;;;8.90;7.82;;;;;;;;;;5050436;28;20039;-79
2023/12/18 11:55:58;;;;;;;11.52;6.97;;;;;;;;;;5049479;28;20033;-78
2023/12/18 11:58:25;;;;;;;18.15;8.20;;;;;;;;;;5048845;28;20056;-78
2023/12/18 12:00:51;;;;;;;14.57;8.25;;;;;;;;;;5050239;28;20472;-79
2023/12/18 12:03:17;;;;;;;6.30;4.35;;;;;;;;;;5049123;28;20037;-79
2023/12/18 12:05:45;;;;;;;7.85;6.25;;;;;;;;;;5051076;28;20032;-79
2023/12/18 12:08:11;;;;;;;11.25;7.00;;;;;;;;;;5049358;28;20040;-78
2023/12/18 12:10:41;;;;;;;5.05;4.47;;;;;;;;;;5051125;28;20032;-80
2023/12/18 12:13:07;;;;;;;5.55;3.97;;;;;;;;;;5049580;28;20116;-79
2023/12/18 12:15:32;;;;;;;10.27;6.32;;;;;;;;;;5049657;28;20115;-78
2023/12/18 12:18:15;;;;;;;4.25;3.70;;;;;;;;;;5050608;28;20024;-77
2023/12/18 12:20:41;;;;;;;6.05;3.25;;;;;;;;;;5049722;28;20366;-78
2023/12/18 12:23:06;;;;;;;5.20;3.70;;;;;;;;;;5049205;28;20031;-77
2023/12/18 12:25:32;;;;;;;5.72;4.72;;;;;;;;;;5050232;28;20424;-79
2023/12/18 12:27:59;;;;;;;5.63;2.92;;;;;;;;;;5049945;28;20048;-80
2023/12/18 12:30:25;;;;;;;4.80;2.90;;;;;;;;;;5048067;28;20053;-78
2023/12/18 12:32:52;;;;;;;4.97;3.50;;;;;;;;;;5046620;28;20056;-79
2023/12/18 12:35:18;;;;;;;3.38;2.95;;;;;;;;;;5050207;28;20020;-79
2023/12/18 12:37:45;;;;;;;6.30;3.15;;;;;;;;;;5050400;28;20086;-78
2023/12/18 12:40:11;;;;;;;7.07;3.63;;;;;;;;;;5050252;28;20025;-79
2023/12/18 12:42:38;;;;;;;10.35;3.58;;;;;;;;;;5049013;28;20439;-79
2023/12/18 12:45:08;;;;;;;7.72;2.97;;;;;;;;;;5050192;28;20491;-78
2023/12/18 12:47:34;;;;;;;2.17;2.00;;;;;;;;;;5046783;28;20476;-79
2023/12/18 12:50:07;;;;;;;1.20;1.15;;;;;;;;;;5047746;28;20033;-79
2023/12/18 12:52:43;;;;;;;2.53;2.10;;;;;;;;;;5049864;28;20206;-79
2023/12/18 12:55:09;;;;;;;1.52;1.15;;;;;;;;;;5049425;28;20130;-79
2023/12/18 12:57:35;;;;;;;3.80;1.77;;;;;;;;;;5049798;28;20041;-79
2023/12/18 13:00:00;;;;;;;3.38;2.17;;;;;;;;;;5049818;28;20025;-79
2023/12/18 13:02:26;;;;;;;5.35;3.83;;;;;;;;;;5050290;28;20477;-78
2023/12/18 13:04:52;;;;;;;2.13;1.63;;;;;;;;;;5049397;28;20029;-79
2023/12/18 13:07:19;;;;;;;3.08;2.03;;;;;;;;;;5045918;28;20036;-78
2023/12/18 13:09:45;;;;;;;1.90;1.80;;;;;;;;;;5049910;28;20370;-79
2023/12/18 13:12:14;;;;;;;1.50;1.40;;;;;;;;;;5049472;28;20031;-79
2023/12/18 13:14:50;;;;;;;0.63;0.63;;;;;;;;;;5048408;28;20079;-78
2023/12/18 13:17:15;;;;;;;1.65;0.65;;;;;;;;;;5048062;28;20500;-79
2023/12/18 13:19:41;;;;;;;1.42;1.33;;;;;;;;;;5049461;28;20521;-79
2023/12/18 13:22:07;;;;;;;0.40;0.40;;;;;;;;;;5045889;28;20028;-80
2023/12/18 13:24:33;;;;;;;1.35;0.95;;;;;;;;;;5048753;28;20384;-78
2023/12/18 13:26:59;;;;;;;3.35;3.05;;;;;;;;;;5045725;28;20025;-80
2023/12/18 13:29:32;;;;;;;1.13;1.05;;;;;;;;;;5047766;28;20465;-80
2023/12/18 13:32:20;;;;;;;5.65;0.95;;;;;;;;;;5049161;28;20021;-78
2023/12/18 13:34:45;;;;;;;3.90;0.93;;;;;;;;;;5047979;28;20527;-78
2023/12/18 13:37:11;;;;;;;0.60;0.60;;;;;;;;;;5048013;28;20095;-77
2023/12/18 13:39:36;;;;;;;0.63;0.63;;;;;;;;;;5045663;28;20381;-80
2023/12/18 13:42:02;;;;;;;0.50;0.50;;;;;;;;;;5048388;28;20087;-79
2023/12/18 13:44:28;;;;;;;2.67;1.23;;;;;;;;;;5047538;28;20033;-79
2023/12/18 13:46:54;;;;;;;1.30;1.02;;;;;;;;;;5046641;28;20029;-79
2023/12/18 13:49:20;;;;;;;2.42;2.22;;;;;;;;;;5048607;28;20052;-80
2023/12/18 13:51:46;;;;;;;4.60;0.85;;;;;;;;;;5048372;28;20392;-76
2023/12/18 13:54:11;;;;;;;1.20;1.10;;;;;;;;;;5045719;28;20032;-77
2023/12/18 13:56:37;;;;;;;1.67;1.33;;;;;;;;;;5046697;28;20500;-77
2023/12/18 13:59:03;;;;;;;1.88;1.23;;;;;;;;;;5047223;28;20079;-77
2023/12/18 14:01:30;;;;;;;2.30;1.95;;;;;;;;;;5048203;28;20039;-78
2023/12/18 14:03:58;;;;;;;1.50;1.40;;;;;;;;;;5046722;28;20425;-78
2023/12/18 14:06:25;;;;;;;1.20;1.10;;;;;;;;;;5051761;28;20091;-78
2023/12/18 14:08:50;;;;;;;1.35;1.15;;;;;;;;;;5052744;28;20037;-76
2023/12/18 14:11:16;;;;;;;4.40;1.85;;;;;;;;;;5049325;28;20859;-77
2023/12/18 14:13:42;;;;;;;1.52;1.42;;;;;;;;;;5053395;28;20028;-78
2023/12/18 14:16:07;;;;;;;3.85;2.13;;;;;;;;;;5048552;28;20028;-77
2023/12/18 14:18:33;;;;;;;1.70;1.52;;;;;;;;;;5049624;28;20029;-78
2023/12/18 14:20:59;;;;;;;0.82;0.82;;;;;;;;;;5050116;28;20082;-80
2023/12/18 14:23:25;;;;;;;0.45;0.45;;;;;;;;;;5052563;28;20024;-80
2023/12/18 14:25:51;;;;;;;2.83;1.17;;;;;;;;;;5045800;28;20113;-78
2023/12/18 14:28:17;;;;;;;0.80;0.80;;;;;;;;;;5050511;28;20028;-77
2023/12/18 14:30:42;;;;;;;0.98;0.57;;;;;;;;;;5050943;28;20028;-80
2023/12/18 14:33:07;;;;;;;1.23;1.13;;;;;;;;;;5051684;28;20032;-78
2023/12/18 14:35:33;;;;;;;0.98;0.88;;;;;;;;;;5052941;28;20112;-79
2023/12/18 14:37:58;;;;;;;0.68;0.68;;;;;;;;;;5055071;28;20035;-80
2023/12/18 14:40:24;;;;;;;1.95;1.55;;;;;;;;;;5051955;28;20428;-81
2023/12/18 14:42:49;;;;;;;0.80;0.80;;;;;;;;;;5053087;28;20098;-80
2023/12/18 14:45:15;;;;;;;0.70;0.68;;;;;;;;;;5054272;28;20048;-82